Time;durP1;ratioP1;P1;durP2;ratioP2;P2;SDS_P1;SDS_P2;PMS_P1;PMS_P2;Temp;Humidity;BMP_temperature;BMP_pressure;BME280_temperature;BME280_humidity;BME280_pressure;Samples;Min_cycle;Max_cycle;Signal;HPM_P1;HPM_P2
2023/06/02 00:00:26;;;;;;;1.92;1.58;;;24.70;55.70;;;;;;6069744;29;20076;-54
2023/06/02 00:03:31;;;;;;;2.42;1.83;;;24.50;77.20;;;;;;6070721;29;20602;-56
2023/06/02 00:06:34;;;;;;;1.67;1.58;;;24.70;71.80;;;;;;6065323;29;20049;-56
2023/06/02 00:09:38;;;;;;;2.05;1.63;;;25.00;55.50;;;;;;6068916;29;20554;-56
2023/06/02 00:12:40;;;;;;;1.95;1.75;;;24.70;55.40;;;;;;6070140;29;20043;-56
2023/06/02 00:15:41;;;;;;;2.05;1.73;;;25.00;55.50;;;;;;6074060;29;20051;-56
2023/06/02 00:18:43;;;;;;;2.10;1.83;;;25.10;55.30;;;;;;6073262;29;20049;-56
2023/06/02 00:21:47;;;;;;;2.05;1.90;;;25.00;55.00;;;;;;6075113;29;20037;-56
2023/06/02 00:24:49;;;;;;;1.80;1.70;;;24.80;86.60;;;;;;6073430;29;20044;-56
2023/06/02 00:27:50;;;;;;;1.98;1.77;;;24.60;67.00;;;;;;6074553;29;20055;-56
2023/06/02 00:30:52;;;;;;;2.03;1.73;;;24.90;53.70;;;;;;6074603;29;20048;-55
2023/06/02 00:33:54;;;;;;;1.70;1.60;;;25.00;53.80;;;;;;6075155;29;20696;-56
2023/06/02 00:36:56;;;;;;;2.45;2.25;;;24.70;53.30;;;;;;6074894;29;20766;-56
2023/06/02 00:40:00;;;;;;;2.03;1.85;;;24.70;53.80;;;;;;6074466;29;20781;-56
2023/06/02 00:43:02;;;;;;;2.33;2.00;;;24.70;52.80;;;;;;6075071;29;20044;-57
2023/06/02 00:46:04;;;;;;;1.70;1.60;;;25.00;54.50;;;;;;6074812;29;20504;-57
2023/06/02 00:49:08;;;;;;;1.90;1.73;;;25.00;53.90;;;;;;6074140;29;20052;-56
2023/06/02 00:52:11;;;;;;;1.85;1.67;;;24.90;53.70;;;;;;6073806;29;20697;-55
2023/06/02 00:55:12;;;;;;;1.67;1.58;;;25.00;53.80;;;;;;6074439;29;20041;-57
2023/06/02 00:58:16;;;;;;;2.35;1.50;;;25.10;53.90;;;;;;6069258;29;20083;-56
2023/06/02 01:01:18;;;;;;;2.00;1.80;;;24.70;53.60;;;;;;6101218;23;20064;-50
2023/06/02 01:04:21;;;;;;;1.50;1.40;;;25.00;53.60;;;;;;6118486;29;20147;-48
2023/06/02 01:07:25;;;;;;;1.85;1.75;;;24.90;53.60;;;;;;6121455;29;20046;-49
2023/06/02 01:10:28;;;;;;;1.65;1.55;;;24.90;53.30;;;;;;6118384;29;20462;-47
2023/06/02 01:13:30;;;;;;;1.73;1.50;;;24.90;53.60;;;;;;6120862;29;20036;-48
2023/06/02 01:16:35;;;;;;;1.55;1.38;;;25.00;53.40;;;;;;6121184;29;20114;-46
2023/06/02 01:19:38;;;;;;;1.98;1.45;;;24.90;52.40;;;;;;6120412;29;20060;-49
2023/06/02 01:22:58;;;;;;;2.22;1.45;;;24.90;53.20;;;;;;6119180;29;20040;-48
2023/06/02 01:26:01;;;;;;;1.50;1.30;;;24.90;53.20;;;;;;6103911;29;20127;-48
2023/06/02 01:29:03;;;;;;;1.40;1.30;;;24.90;53.00;;;;;;6118918;29;20047;-48
2023/06/02 01:32:14;;;;;;;1.80;1.70;;;25.00;53.20;;;;;;6120678;29;20538;-48
2023/06/02 01:35:19;;;;;;;1.52;1.42;;;25.00;53.10;;;;;;6120460;29;20091;-46
2023/06/02 01:38:23;;;;;;;1.70;1.50;;;24.80;52.90;;;;;;6120163;29;20039;-45
2023/06/02 01:41:27;;;;;;;1.60;1.38;;;24.80;52.90;;;;;;6119887;29;20063;-45
2023/06/02 01:44:29;;;;;;;1.38;1.27;;;24.90;53.00;;;;;;6119150;29;20095;-45
2023/06/02 01:47:31;;;;;;;1.55;1.42;;;24.60;52.90;;;;;;6119758;29;20044;-45
2023/06/02 01:50:37;;;;;;;1.50;1.30;;;24.90;53.30;;;;;;6120782;29;20044;-48
2023/06/02 01:53:38;;;;;;;1.88;1.23;;;24.70;52.60;;;;;;6104538;29;20067;-48
2023/06/02 01:56:40;;;;;;;1.65;1.50;;;24.50;52.50;;;;;;6120730;29;20403;-50
2023/06/02 01:59:42;;;;;;;1.48;1.38;;;24.80;52.60;;;;;;6118602;29;20043;-49
2023/06/02 02:02:43;;;;;;;1.48;1.30;;;24.80;52.60;;;;;;6120688;29;20043;-46
2023/06/02 02:05:45;;;;;;;1.30;1.20;;;24.80;52.50;;;;;;6120819;29;20036;-49
2023/06/02 02:08:47;;;;;;;1.40;1.20;;;24.90;52.30;;;;;;6120638;29;20047;-49
2023/06/02 02:11:50;;;;;;;1.25;1.00;;;24.20;51.80;;;;;;6120527;29;20728;-49
2023/06/02 02:15:00;;;;;;;1.23;1.08;;;24.80;52.10;;;;;;6119818;29;20044;-46
2023/06/02 02:18:03;;;;;;;1.10;1.00;;;24.40;52.00;;;;;;6119047;29;20048;-50
2023/06/02 02:21:05;;;;;;;1.42;1.30;;;24.70;52.00;;;;;;6118196;29;20254;-45
2023/06/02 02:24:07;;;;;;;1.35;1.25;;;24.30;51.80;;;;;;6118951;29;20107;-48
2023/06/02 02:27:09;;;;;;;1.30;1.02;;;24.70;51.80;;;;;;6119328;29;20102;-48
2023/06/02 02:30:11;;;;;;;1.10;0.95;;;24.70;52.10;;;;;;6119466;29;20419;-45
2023/06/02 02:33:13;;;;;;;1.10;1.00;;;24.80;51.90;;;;;;6118452;29;20043;-46
2023/06/02 02:36:16;;;;;;;1.23;1.13;;;24.40;52.00;;;;;;6118386;29;20523;-44
2023/06/02 02:39:17;;;;;;;0.88;0.80;;;24.30;51.70;;;;;;6118834;29;20054;-47
2023/06/02 02:42:20;;;;;;;1.23;1.10;;;24.70;52.70;;;;;;6118616;29;20043;-45
2023/06/02 02:45:21;;;;;;;2.17;1.17;;;24.80;52.20;;;;;;6118648;29;20070;-45
2023/06/02 02:48:23;;;;;;;1.10;0.90;;;24.80;51.90;;;;;;6118933;29;20257;-43
2023/06/02 02:51:25;;;;;;;1.20;1.10;;;24.70;51.70;;;;;;6119234;29;20043;-48
2023/06/02 02:54:26;;;;;;;1.23;1.13;;;24.90;51.90;;;;;;6118899;29;20538;-44
2023/06/02 02:57:28;;;;;;;1.10;0.90;;;24.30;51.50;;;;;;6112170;29;20290;-44
2023/06/02 03:00:30;;;;;;;1.08;0.98;;;24.70;51.70;;;;;;6117055;29;20043;-49
2023/06/02 03:03:32;;;;;;;1.45;1.30;;;24.50;51.60;;;;;;6118624;29;20051;-44
2023/06/02 03:06:33;;;;;;;1.88;1.30;;;24.70;51.60;;;;;;6118955;29;20040;-47
2023/06/02 03:09:36;;;;;;;1.10;1.00;;;24.60;51.50;;;;;;6118526;29;20510;-45
2023/06/02 03:12:38;;;;;;;1.70;1.20;;;24.20;51.30;;;;;;6117905;29;20059;-45
2023/06/02 03:15:40;;;;;;;1.30;1.13;;;24.60;51.30;;;;;;6118651;29;20118;-48
2023/06/02 03:18:43;;;;;;;1.55;1.20;;;24.70;51.40;;;;;;6118001;29;20469;-47
2023/06/02 03:21:45;;;;;;;1.63;1.17;;;24.60;51.60;;;;;;6118849;29;20495;-46
2023/06/02 03:24:50;;;;;;;1.40;1.20;;;24.60;51.70;;;;;;6119263;29;20123;-40
2023/06/02 03:27:52;;;;;;;1.27;1.17;;;24.10;51.20;;;;;;6119097;29;20039;-39
2023/06/02 03:30:57;;;;;;;1.20;1.00;;;24.70;52.00;;;;;;6118508;29;20054;-45
2023/06/02 03:33:59;;;;;;;1.23;1.00;;;25.10;51.90;;;;;;6116252;29;20040;-45
2023/06/02 03:37:02;;;;;;;2.13;1.48;;;24.60;52.20;;;;;;6115216;29;20342;-41
2023/06/02 03:40:06;;;;;;;1.20;1.10;;;24.50;66.90;;;;;;6118117;29;20044;-43
2023/06/02 03:43:09;;;;;;;1.38;1.25;;;24.50;50.60;;;;;;6118325;29;20126;-40
2023/06/02 03:46:12;;;;;;;1.40;0.98;;;24.50;50.60;;;;;;6121278;29;20048;-41
2023/06/02 03:49:13;;;;;;;1.77;1.30;;;24.50;50.70;;;;;;6122210;29;20056;-41
2023/06/02 03:52:16;;;;;;;1.10;1.00;;;24.30;50.40;;;;;;6121782;29;20415;-42
2023/06/02 03:55:17;;;;;;;1.50;1.13;;;24.50;50.80;;;;;;6113370;29;20036;-41
2023/06/02 03:58:23;;;;;;;1.20;1.08;;;24.50;50.80;;;;;;6120836;29;20036;-42
2023/06/02 04:01:25;;;;;;;1.38;1.20;;;24.50;51.00;;;;;;6121354;29;20383;-43
2023/06/02 04:04:29;;;;;;;1.67;1.20;;;24.40;51.10;;;;;;6121854;29;20047;-40
2023/06/02 04:07:31;;;;;;;1.15;1.05;;;24.40;50.90;;;;;;6121942;29;20119;-42
2023/06/02 04:10:35;;;;;;;1.73;1.20;;;24.50;50.40;;;;;;6122441;29;20040;-44
2023/06/02 04:13:37;;;;;;;1.77;1.20;;;24.40;50.30;;;;;;6121716;29;20349;-42
2023/06/02 04:16:39;;;;;;;1.08;0.95;;;24.10;50.00;;;;;;6121179;29;20087;-42
2023/06/02 04:19:40;;;;;;;1.33;1.10;;;24.20;50.10;;;;;;6121692;29;20043;-44
2023/06/02 04:22:42;;;;;;;1.45;1.20;;;24.50;50.10;;;;;;6121289;29;20043;-42
2023/06/02 04:25:43;;;;;;;1.38;1.10;;;24.40;50.00;;;;;;6119374;29;20048;-48
2023/06/02 04:28:45;;;;;;;1.40;1.10;;;24.10;49.70;;;;;;6117476;29;20044;-45
2023/06/02 04:31:47;;;;;;;1.30;1.20;;;24.40;50.10;;;;;;6119548;29;20120;-44
2023/06/02 04:34:56;;;;;;;1.45;1.23;;;24.30;49.60;;;;;;6119947;29;20059;-45
2023/06/02 04:37:57;;;;;;;1.20;1.02;;;24.50;49.90;;;;;;6120080;29;20035;-45
2023/06/02 04:41:01;;;;;;;1.00;0.82;;;24.50;49.60;;;;;;6119706;29;20123;-45
2023/06/02 04:44:06;;;;;;;1.52;1.00;;;24.40;49.70;;;;;;6118818;29;20036;-43
2023/06/02 04:47:08;;;;;;;2.17;1.00;;;24.30;49.30;;;;;;6120300;29;20040;-45
2023/06/02 04:50:13;;;;;;;1.77;1.02;;;23.90;49.40;;;;;;6119994;29;20099;-44
2023/06/02 04:53:15;;;;;;;1.27;0.95;;;24.10;49.30;;;;;;6119532;29;20042;-44
2023/06/02 04:56:17;;;;;;;2.95;1.20;;;24.30;49.30;;;;;;6119876;29;20043;-45
2023/06/02 04:59:20;;;;;;;1.35;1.00;;;24.30;49.30;;;;;;6119573;29;20107;-40
2023/06/02 05:02:22;;;;;;;1.65;0.98;;;24.30;49.30;;;;;;6120212;29;20043;-43
2023/06/02 05:05:24;;;;;;;2.65;1.08;;;24.30;49.10;;;;;;6119939;29;20071;-41
2023/06/02 05:08:25;;;;;;;1.48;1.02;;;24.20;49.10;;;;;;6119085;29;20052;-45
2023/06/02 05:11:27;;;;;;;1.15;0.90;;;24.30;49.00;;;;;;6116503;29;20068;-45
2023/06/02 05:14:31;;;;;;;1.42;0.90;;;24.10;48.60;;;;;;6117353;29;20061;-44
2023/06/02 05:17:33;;;;;;;1.45;1.15;;;24.20;48.30;;;;;;6112055;29;20043;-42
2023/06/02 05:20:36;;;;;;;1.25;1.10;;;23.90;49.00;;;;;;6117514;29;20522;-42
2023/06/02 05:23:39;;;;;;;1.20;1.05;;;23.70;48.00;;;;;;6118311;29;20050;-42
2023/06/02 05:26:41;;;;;;;1.40;1.10;;;24.30;48.30;;;;;;6119935;29;20036;-39
2023/06/02 05:29:44;;;;;;;1.20;1.10;;;24.30;48.30;;;;;;6119711;29;20561;-45
2023/06/02 05:32:46;;;;;;;1.05;0.90;;;24.10;47.90;;;;;;6120013;29;20036;-47
2023/06/02 05:35:48;;;;;;;1.45;0.90;;;24.40;47.90;;;;;;6120284;29;20122;-41
2023/06/02 05:38:51;;;;;;;1.10;0.95;;;24.20;48.10;;;;;;6113165;29;20051;-48
2023/06/02 05:41:54;;;;;;;1.23;0.90;;;24.20;47.90;;;;;;6117737;29;20091;-46
2023/06/02 05:44:56;;;;;;;1.38;0.90;;;24.20;47.90;;;;;;6119066;29;20044;-42
2023/06/02 05:47:58;;;;;;;0.85;0.77;;;24.30;47.90;;;;;;6118002;29;20172;-47
2023/06/02 05:51:00;;;;;;;0.80;0.80;;;24.30;47.80;;;;;;6114905;29;20126;-44
2023/06/02 05:54:02;;;;;;;1.05;0.95;;;24.00;47.70;;;;;;6118226;29;20047;-43
2023/06/02 05:57:04;;;;;;;1.30;1.00;;;24.20;47.80;;;;;;6112586;29;20454;-48
2023/06/02 06:00:09;;;;;;;1.48;1.10;;;24.40;47.60;;;;;;6116142;29;20039;-46
2023/06/02 06:03:15;;;;;;;1.30;1.10;;;24.20;48.20;;;;;;6096234;29;20051;-42
2023/06/02 06:06:19;;;;;;;0.98;0.88;;;24.20;47.70;;;;;;6106327;29;20546;-45
2023/06/02 06:09:21;;;;;;;1.20;1.10;;;24.20;47.50;;;;;;6113739;29;20043;-44
2023/06/02 06:12:23;;;;;;;1.40;1.20;;;24.10;47.30;;;;;;6107410;29;20102;-46
2023/06/02 06:15:26;;;;;;;1.90;1.20;;;24.00;47.40;;;;;;6115436;29;20036;-43
2023/06/02 06:18:27;;;;;;;1.30;1.20;;;24.20;47.30;;;;;;6085302;29;20744;-43
2023/06/02 06:21:29;;;;;;;1.10;0.98;;;24.20;47.40;;;;;;6104177;29;20040;-44
2023/06/02 06:24:31;;;;;;;2.13;1.48;;;24.30;47.30;;;;;;6086597;29;20131;-47
2023/06/02 06:27:32;;;;;;;1.20;1.10;;;24.30;47.20;;;;;;6112638;29;20638;-44
2023/06/02 06:30:35;;;;;;;3.22;2.08;;;24.20;46.90;;;;;;6113977;29;20768;-47
2023/06/02 06:33:40;;;;;;;2.20;1.70;;;24.20;46.90;;;;;;6110596;29;20789;-47
2023/06/02 06:36:43;;;;;;;2.13;1.80;;;24.10;46.60;;;;;;6109086;29;20036;-44
2023/06/02 06:39:44;;;;;;;2.28;1.65;;;24.20;46.90;;;;;;6073543;29;20044;-45
2023/06/02 06:42:46;;;;;;;3.05;2.47;;;24.10;46.90;;;;;;6100584;29;20044;-50
2023/06/02 06:45:54;;;;;;;4.95;2.33;;;23.90;46.50;;;;;;6105199;29;20047;-45
2023/06/02 06:48:59;;;;;;;3.03;2.50;;;24.30;46.60;;;;;;6108243;29;20322;-50
2023/06/02 06:52:00;;;;;;;5.10;2.45;;;24.50;46.60;;;;;;6106173;29;20043;-49
2023/06/02 06:55:02;;;;;;;3.08;2.72;;;24.20;46.40;;;;;;6107839;29;20039;-49
2023/06/02 06:58:04;;;;;;;2.83;2.13;;;24.20;46.50;;;;;;6104778;29;20545;-47
2023/06/02 07:01:06;;;;;;;3.38;3.08;;;24.20;46.40;;;;;;6099005;29;20046;-47
2023/06/02 07:04:07;;;;;;;4.97;2.55;;;24.30;46.20;;;;;;6089929;29;20633;-47
2023/06/02 07:07:12;;;;;;;5.60;3.42;;;24.20;46.10;;;;;;6101401;29;20047;-47
2023/06/02 07:10:14;;;;;;;3.40;2.70;;;24.20;45.90;;;;;;6103787;29;20040;-48
2023/06/02 07:13:16;;;;;;;3.20;2.70;;;24.10;45.60;;;;;;6105631;29;20044;-49
2023/06/02 07:16:21;;;;;;;3.03;2.33;;;24.30;45.80;;;;;;6108960;29;20047;-45
2023/06/02 07:19:24;;;;;;;5.70;2.35;;;24.30;45.80;;;;;;6104625;29;20086;-49
2023/06/02 07:22:26;;;;;;;3.85;2.22;;;24.20;45.90;;;;;;6079677;29;20887;-48
2023/06/02 07:25:27;;;;;;;3.45;2.40;;;24.30;46.00;;;;;;6098390;29;20063;-49
2023/06/02 07:28:29;;;;;;;3.00;2.63;;;24.30;45.90;;;;;;6100919;29;20046;-48
2023/06/02 07:31:43;;;;;;;4.22;2.80;;;24.20;45.70;;;;;;6107030;29;20640;-52
2023/06/02 07:34:45;;;;;;;3.83;2.53;;;24.30;45.50;;;;;;6099078;29;20044;-52
2023/06/02 07:37:51;;;;;;;4.80;3.00;;;24.40;45.70;;;;;;6100849;29;20627;-50
2023/06/02 07:40:52;;;;;;;6.85;3.63;;;24.30;45.60;;;;;;6100141;29;20043;-51
2023/06/02 07:43:54;;;;;;;3.20;2.88;;;24.10;45.60;;;;;;6107359;29;20051;-52
2023/06/02 07:46:56;;;;;;;3.15;2.20;;;24.50;45.40;;;;;;6087608;29;20461;-52
2023/06/02 07:50:00;;;;;;;2.67;2.10;;;24.70;45.60;;;;;;6095498;29;20046;-48
2023/06/02 07:53:02;;;;;;;2.30;1.85;;;24.20;45.50;;;;;;6072706;29;20821;-53
2023/06/02 07:56:07;;;;;;;2.65;2.08;;;24.20;45.70;;;;;;6073229;29;20716;-53
2023/06/02 07:59:12;;;;;;;3.17;1.95;;;23.40;45.30;;;;;;6092269;29;20570;-52
2023/06/02 08:02:14;;;;;;;2.22;2.03;;;24.40;45.60;;;;;;6101985;29;20044;-49
2023/06/02 08:05:15;;;;;;;2.33;1.77;;;24.20;45.40;;;;;;6063211;29;20123;-49
2023/06/02 08:08:17;;;;;;;2.03;1.83;;;24.30;45.60;;;;;;6070175;29;20160;-48
2023/06/02 08:11:19;;;;;;;2.00;1.80;;;23.90;45.40;;;;;;6093778;29;20648;-52
2023/06/02 08:14:24;;;;;;;2.25;2.05;;;24.30;45.60;;;;;;6106155;29;20040;-51
2023/06/02 08:17:29;;;;;;;2.30;2.10;;;24.50;45.70;;;;;;6106320;29;20052;-48
2023/06/02 08:20:31;;;;;;;2.40;2.20;;;24.40;45.80;;;;;;6099653;29;20039;-49
2023/06/02 08:23:32;;;;;;;2.22;2.03;;;24.30;45.50;;;;;;6102996;29;20039;-53
2023/06/02 08:26:34;;;;;;;2.30;2.13;;;24.50;45.70;;;;;;6103061;29;20040;-51
2023/06/02 08:29:35;;;;;;;2.35;2.10;;;24.40;45.60;;;;;;6095470;29;20774;-51
2023/06/02 08:32:37;;;;;;;3.35;2.40;;;24.50;45.70;;;;;;6104069;29;20048;-47
2023/06/02 08:35:40;;;;;;;1.85;1.73;;;24.30;45.50;;;;;;6078226;29;20677;-52
2023/06/02 08:38:41;;;;;;;2.33;2.10;;;24.40;45.90;;;;;;6077867;29;20039;-50
2023/06/02 08:41:48;;;;;;;2.70;2.50;;;24.20;45.70;;;;;;6080158;29;20036;-47
2023/06/02 08:44:49;;;;;;;4.47;2.95;;;24.50;45.70;;;;;;6069684;29;20036;-53
2023/06/02 08:47:56;;;;;;;3.67;3.10;;;24.00;45.70;;;;;;6074327;29;20119;-53
2023/06/02 08:50:58;;;;;;;3.65;2.60;;;24.00;45.40;;;;;;6065302;29;20850;-49
2023/06/02 08:54:00;;;;;;;3.03;2.83;;;23.90;45.90;;;;;;6065466;29;20036;-50
2023/06/02 08:57:04;;;;;;;2.70;2.50;;;24.50;45.80;;;;;;6062921;29;20661;-48
2023/06/02 09:00:07;;;;;;;3.95;2.55;;;24.60;45.80;;;;;;6076500;29;20043;-48
2023/06/02 09:03:13;;;;;;;3.08;2.88;;;24.50;45.60;;;;;;6079837;29;20039;-51
2023/06/02 09:06:36;;;;;;;3.35;2.40;;;24.50;45.80;;;;;;6078006;29;20692;-51
2023/06/02 09:09:39;;;;;;;2.22;2.03;;;24.60;45.80;;;;;;6095613;29;20044;-51
2023/06/02 09:12:48;;;;;;;2.38;2.17;;;24.30;45.60;;;;;;6097970;29;20673;-50
2023/06/02 09:15:56;;;;;;;1.90;1.80;;;24.50;45.50;;;;;;6087218;29;20131;-48
2023/06/02 09:18:59;;;;;;;2.70;2.50;;;24.60;45.60;;;;;;6090700;29;20048;-47
2023/06/02 09:22:04;;;;;;;2.42;2.15;;;24.50;45.70;;;;;;6090651;29;20032;-48
2023/06/02 09:25:20;;;;;;;2.38;2.17;;;24.30;45.90;;;;;;6098654;29;20758;-51
2023/06/02 09:28:24;;;;;;;2.35;2.15;;;24.60;45.70;;;;;;6095456;29;20043;-51
2023/06/02 09:31:28;;;;;;;2.20;2.00;;;24.60;45.60;;;;;;6097624;29;20762;-50
2023/06/02 09:34:35;;;;;;;2.10;1.92;;;24.70;46.00;;;;;;6099987;29;20257;-50
2023/06/02 09:37:53;;;;;;;3.13;2.10;;;24.60;45.70;;;;;;6062018;29;20040;-49
2023/06/02 09:40:57;;;;;;;1.90;1.80;;;24.40;45.70;;;;;;6063927;29;20039;-53
2023/06/02 09:43:59;;;;;;;2.17;2.00;;;24.60;46.00;;;;;;6098832;29;20043;-52
2023/06/02 09:47:03;;;;;;;1.77;1.65;;;24.50;45.50;;;;;;6095207;29;20047;-50
2023/06/02 09:50:07;;;;;;;2.55;1.90;;;24.50;45.40;;;;;;6084596;29;20048;-51
2023/06/02 09:53:11;;;;;;;2.13;1.90;;;24.60;45.60;;;;;;6097908;29;20695;-52
2023/06/02 09:56:13;;;;;;;1.98;1.75;;;24.70;45.60;;;;;;6095451;29;20495;-51
2023/06/02 09:59:15;;;;;;;2.10;1.90;;;24.80;45.50;;;;;;6092902;29;20502;-53
2023/06/02 10:02:17;;;;;;;2.45;1.60;;;23.30;44.80;;;;;;6096457;29;20032;-49
2023/06/02 10:05:22;;;;;;;1.98;1.67;;;24.50;45.70;;;;;;6083353;29;20713;-46
2023/06/02 10:08:35;;;;;;;2.85;1.80;;;24.60;45.50;;;;;;6054386;29;20370;-45
2023/06/02 10:11:47;;;;;;;2.33;1.48;;;24.70;45.60;;;;;;6062086;29;20225;-47
2023/06/02 10:15:16;;;;;;;2.60;1.92;;;24.60;45.40;;;;;;6091746;29;20326;-45
2023/06/02 10:18:37;;;;;;;1.75;1.65;;;24.80;45.50;;;;;;6088199;29;20044;-47
2023/06/02 10:21:47;;;;;;;;;;;24.70;45.50;;;;;;6085469;29;20147;-50
2023/06/02 10:24:56;;;;;;;1.92;1.80;;;24.90;45.70;;;;;;6086076;29;20227;-48
2023/06/02 10:28:00;;;;;;;2.95;1.65;;;24.90;45.50;;;;;;6084194;29;20047;-46
2023/06/02 10:31:07;;;;;;;2.03;1.80;;;24.80;45.40;;;;;;6086391;29;20417;-48
2023/06/02 10:34:29;;;;;;;1.58;1.48;;;24.70;45.30;;;;;;6086746;29;20044;-47
2023/06/02 10:37:34;;;;;;;1.70;1.60;;;25.30;45.60;;;;;;6082905;29;20055;-49
2023/06/02 10:40:49;;;;;;;1.90;1.80;;;24.80;45.20;;;;;;6087792;29;20082;-46
2023/06/02 10:44:16;;;;;;;1.98;1.80;;;24.80;45.60;;;;;;6085628;29;20091;-48
2023/06/02 10:47:33;;;;;;;1.60;1.40;;;25.10;45.30;;;;;;6083109;29;20051;-49
2023/06/02 10:50:52;;;;;;;1.80;1.70;;;24.80;45.10;;;;;;6087609;29;20181;-50
2023/06/02 10:54:16;;;;;;;1.55;1.45;;;25.00;45.10;;;;;;6070505;29;20246;-49
2023/06/02 10:57:47;;;;;;;1.80;1.70;;;24.80;44.90;;;;;;6087659;29;20636;-48
2023/06/02 11:00:50;;;;;;;1.63;1.52;;;24.90;44.90;;;;;;6092397;29;20177;-47
2023/06/02 11:03:52;;;;;;;1.27;1.17;;;24.90;44.90;;;;;;6078158;29;20641;-49
2023/06/02 11:07:22;;;;;;;1.60;1.50;;;25.00;44.90;;;;;;6063013;29;20582;-47
2023/06/02 11:10:41;;;;;;;1.70;1.60;;;25.00;45.00;;;;;;6094616;29;20040;-51
2023/06/02 11:13:57;;;;;;;1.50;1.40;;;24.90;44.80;;;;;;6069547;29;20032;-47
2023/06/02 11:17:26;;;;;;;2.25;1.88;;;24.90;45.20;;;;;;6091609;29;20500;-51
2023/06/02 11:20:34;;;;;;;1.33;1.23;;;24.90;44.70;;;;;;6088679;29;20122;-48
2023/06/02 11:23:41;;;;;;;1.40;1.30;;;24.90;44.60;;;;;;6091747;29;20058;-45
2023/06/02 11:26:48;;;;;;;1.30;1.20;;;24.70;44.60;;;;;;6098720;29;20044;-47
2023/06/02 11:30:05;;;;;;;1.40;1.30;;;25.10;44.70;;;;;;6100175;29;20673;-51
2023/06/02 11:33:07;;;;;;;1.55;1.45;;;25.10;44.60;;;;;;6098704;29;20620;-50
2023/06/02 11:36:12;;;;;;;1.73;1.35;;;25.00;44.60;;;;;;6102928;29;20039;-49
2023/06/02 11:39:13;;;;;;;1.70;1.60;;;25.10;44.70;;;;;;6099254;29;20626;-48
2023/06/02 11:42:16;;;;;;;1.40;1.30;;;25.10;44.70;;;;;;6104450;29;20119;-52
2023/06/02 11:45:19;;;;;;;1.67;1.27;;;25.20;44.40;;;;;;6100817;29;20138;-48
2023/06/02 11:48:25;;;;;;;1.58;1.48;;;25.10;44.50;;;;;;6095913;29;20044;-52
2023/06/02 11:51:30;;;;;;;2.40;1.52;;;25.00;44.50;;;;;;6092372;29;20050;-50
2023/06/02 11:54:31;;;;;;;1.60;1.50;;;25.10;44.30;;;;;;6091461;29;20583;-53
2023/06/02 11:57:35;;;;;;;1.65;1.50;;;25.20;45.30;;;;;;6089716;29;20040;-51
2023/06/02 12:00:36;;;;;;;1.52;1.42;;;25.10;44.70;;;;;;6061911;29;20055;-45
2023/06/02 12:03:38;;;;;;;1.63;1.30;;;25.00;44.80;;;;;;6054237;29;20064;-48
2023/06/02 12:06:46;;;;;;;1.40;1.30;;;25.20;44.80;;;;;;6071775;29;20073;-48
2023/06/02 12:09:48;;;;;;;1.38;1.27;;;24.80;44.50;;;;;;6101689;29;20043;-49
2023/06/02 12:12:50;;;;;;;1.45;1.35;;;25.00;44.50;;;;;;6098739;29;20040;-50
2023/06/02 12:15:52;;;;;;;1.38;1.27;;;25.30;44.60;;;;;;6092811;29;20036;-48
2023/06/02 12:18:55;;;;;;;1.38;1.27;;;25.10;44.40;;;;;;6101100;29;20066;-50
2023/06/02 12:22:08;;;;;;;1.50;1.40;;;24.90;44.20;;;;;;6100622;29;20036;-52
2023/06/02 12:25:11;;;;;;;1.55;1.45;;;25.40;44.60;;;;;;6086841;29;20769;-49
2023/06/02 12:28:14;;;;;;;1.60;1.50;;;25.00;44.30;;;;;;6093362;29;20040;-50
2023/06/02 12:31:16;;;;;;;1.50;1.40;;;25.00;44.20;;;;;;6097435;29;20039;-53
2023/06/02 12:34:18;;;;;;;2.88;1.80;;;25.30;44.20;;;;;;6102561;29;20067;-51
2023/06/02 12:37:19;;;;;;;2.28;1.80;;;25.30;44.10;;;;;;6095324;29;20044;-54
2023/06/02 12:40:20;;;;;;;1.77;1.60;;;25.40;43.90;;;;;;6105902;29;20044;-50
2023/06/02 12:43:22;;;;;;;2.15;1.77;;;25.20;43.60;;;;;;6099920;29;20073;-48
2023/06/02 12:46:26;;;;;;;2.17;1.98;;;25.30;43.40;;;;;;6104214;29;20067;-53
2023/06/02 12:49:28;;;;;;;2.08;1.75;;;25.50;43.50;;;;;;6106472;29;20620;-53
2023/06/02 12:52:30;;;;;;;2.20;2.00;;;25.50;43.30;;;;;;6099434;29;20035;-53
2023/06/02 12:55:34;;;;;;;2.05;1.85;;;25.30;43.00;;;;;;6096774;29;20117;-53
2023/06/02 12:58:37;;;;;;;2.10;1.90;;;25.20;42.80;;;;;;6099109;29;20044;-53
2023/06/02 13:01:38;;;;;;;3.00;1.80;;;25.50;42.70;;;;;;6100258;29;20500;-53
2023/06/02 13:04:40;;;;;;;1.92;1.80;;;25.50;42.90;;;;;;6102876;29;20044;-52
2023/06/02 13:07:42;;;;;;;2.20;2.00;;;25.50;42.50;;;;;;6095807;29;20047;-47
2023/06/02 13:10:43;;;;;;;2.15;1.95;;;25.30;42.20;;;;;;6103492;29;20047;-51
2023/06/02 13:13:45;;;;;;;2.22;2.03;;;25.50;42.30;;;;;;6103074;29;20407;-44
2023/06/02 13:16:48;;;;;;;2.88;2.03;;;25.10;41.90;;;;;;6082651;29;20867;-52
2023/06/02 13:19:50;;;;;;;2.25;2.05;;;25.30;42.50;;;;;;6057398;29;20046;-52
2023/06/02 13:22:51;;;;;;;2.03;1.83;;;25.40;42.10;;;;;;6060008;29;20046;-49
2023/06/02 13:25:53;;;;;;;2.08;1.90;;;25.50;42.10;;;;;;6070266;29;20090;-49
2023/06/02 13:28:55;;;;;;;2.30;2.10;;;25.60;42.20;;;;;;6071570;29;20119;-50
2023/06/02 13:31:59;;;;;;;2.03;1.88;;;26.40;42.60;;;;;;6091119;29;20035;-49
2023/06/02 13:35:00;;;;;;;2.08;1.90;;;25.20;41.80;;;;;;6103576;29;20186;-51
2023/06/02 13:38:02;;;;;;;2.03;1.80;;;25.40;41.80;;;;;;6098895;29;20040;-52
2023/06/02 13:41:07;;;;;;;1.77;1.67;;;25.40;41.80;;;;;;6088114;29;20675;-50
2023/06/02 13:44:16;;;;;;;1.77;1.67;;;25.40;41.80;;;;;;6089430;29;20032;-50
2023/06/02 13:47:18;;;;;;;1.45;1.35;;;25.40;41.70;;;;;;6088613;29;20043;-48
2023/06/02 13:50:21;;;;;;;2.10;1.90;;;25.50;42.20;;;;;;6091804;29;20056;-50
2023/06/02 13:53:24;;;;;;;1.80;1.67;;;25.40;41.80;;;;;;6097050;29;20036;-49
2023/06/02 13:56:27;;;;;;;2.42;1.40;;;25.50;41.50;;;;;;6097593;29;20750;-51
2023/06/02 13:59:30;;;;;;;1.60;1.50;;;25.40;41.40;;;;;;6089962;29;20469;-47
2023/06/02 14:02:31;;;;;;;1.60;1.50;;;24.20;40.50;;;;;;6087410;29;20269;-48
2023/06/02 14:05:34;;;;;;;1.80;1.70;;;25.50;41.20;;;;;;6102086;29;20122;-47
2023/06/02 14:08:38;;;;;;;1.67;1.50;;;25.40;41.10;;;;;;6091303;29;20439;-48
2023/06/02 14:11:41;;;;;;;1.30;1.17;;;25.50;41.10;;;;;;6098475;29;20070;-49
2023/06/02 14:14:43;;;;;;;2.05;1.70;;;25.70;41.20;;;;;;6101742;29;20103;-50
2023/06/02 14:17:45;;;;;;;1.75;1.42;;;25.40;41.20;;;;;;6097011;29;20098;-47
2023/06/02 14:20:47;;;;;;;2.05;1.48;;;25.50;40.80;;;;;;6100887;29;20046;-48
2023/06/02 14:23:51;;;;;;;1.60;1.25;;;25.30;40.60;;;;;;6099506;29;20044;-50
2023/06/02 14:26:52;;;;;;;1.25;1.15;;;26.70;41.50;;;;;;6095735;29;20070;-50
2023/06/02 14:29:54;;;;;;;1.65;1.33;;;25.50;40.70;;;;;;6097737;29;20119;-52
2023/06/02 14:32:56;;;;;;;1.65;1.20;;;25.50;40.60;;;;;;6089993;29;20060;-50
2023/06/02 14:35:57;;;;;;;1.75;1.40;;;25.50;40.60;;;;;;6095618;29;20608;-51
2023/06/02 14:39:00;;;;;;;1.45;1.20;;;25.50;41.20;;;;;;6060401;29;20752;-49
2023/06/02 14:42:02;;;;;;;1.13;1.00;;;25.60;40.60;;;;;;6090323;29;20103;-51
2023/06/02 14:45:05;;;;;;;1.25;1.15;;;25.30;40.80;;;;;;6096263;29;20094;-49
2023/06/02 14:48:08;;;;;;;1.17;1.08;;;25.20;40.10;;;;;;6093418;29;20064;-50
2023/06/02 14:51:09;;;;;;;0.95;0.85;;;25.50;40.40;;;;;;6068227;29;20046;-48
2023/06/02 14:54:11;;;;;;;1.10;0.95;;;25.50;40.30;;;;;;6051852;29;20262;-48
2023/06/02 14:57:15;;;;;;;1.00;0.90;;;25.20;40.40;;;;;;6085466;29;20048;-47
2023/06/02 15:00:18;;;;;;;1.10;0.82;;;25.70;40.40;;;;;;6067174;29;20410;-49
2023/06/02 15:03:19;;;;;;;1.02;0.93;;;25.50;40.40;;;;;;6065492;29;20031;-48
2023/06/02 15:06:24;;;;;;;0.80;0.75;;;25.50;40.50;;;;;;6062951;29;20255;-47
2023/06/02 15:09:25;;;;;;;2.22;0.98;;;25.50;40.30;;;;;;6057243;29;20700;-46
2023/06/02 15:12:28;;;;;;;0.70;0.70;;;24.80;39.90;;;;;;6045957;29;20044;-51
2023/06/02 15:15:33;;;;;;;0.63;0.63;;;25.50;40.20;;;;;;6071528;29;20052;-47
2023/06/02 15:18:35;;;;;;;1.40;0.80;;;25.50;40.50;;;;;;6073908;29;20044;-51
2023/06/02 15:21:52;;;;;;;1.75;0.70;;;25.60;40.30;;;;;;6067713;29;20543;-50
2023/06/02 15:24:53;;;;;;;0.80;0.70;;;25.30;40.00;;;;;;6066766;29;20475;-50
2023/06/02 15:27:58;;;;;;;0.50;0.50;;;25.70;40.30;;;;;;6054827;29;20052;-50
2023/06/02 15:31:00;;;;;;;0.73;0.50;;;25.60;40.20;;;;;;6060833;29;20176;-48
2023/06/02 15:34:01;;;;;;;1.00;0.80;;;25.20;40.00;;;;;;6035503;29;20106;-46
2023/06/02 15:37:03;;;;;;;0.80;0.77;;;25.20;40.00;;;;;;6067066;29;20132;-48
2023/06/02 15:40:08;;;;;;;0.98;0.60;;;25.60;40.20;;;;;;6067008;29;20517;-47
2023/06/02 15:43:10;;;;;;;0.50;0.45;;;25.60;40.10;;;;;;6081441;29;20059;-48
2023/06/02 15:46:12;;;;;;;1.20;0.70;;;25.60;40.10;;;;;;6089524;29;20185;-50
2023/06/02 15:49:23;;;;;;;0.93;0.60;;;25.70;40.10;;;;;;6102835;29;20039;-51
2023/06/02 15:52:24;;;;;;;0.73;0.40;;;25.60;40.00;;;;;;6086379;29;20040;-52
2023/06/02 15:55:27;;;;;;;0.57;0.40;;;25.70;40.10;;;;;;6106891;29;20245;-48
2023/06/02 15:58:28;;;;;;;1.80;0.70;;;25.60;39.90;;;;;;6105237;29;20039;-50